Tiempo atmosférico en la estación meteorológica de Jávea/ Xàbia, Alacant/Alicante (15 m.)



Fecha
DESCASC
Temp. máxima en grados centígrados (hora)
DESCASC
Temp. mínima en grados centígrados (hora)
DESCASC
Temp. media en grados centígrados
DESCASC
Racha de viento máxima en m/sg (hora)
DESCASC
Velocidad máxima media en intervalos de 10 minutos(hora)
DESCASC
Precipitaciones diarias en mm
DESCASC
Precipitaciones de 00:00 a 06:00 en mm
DESCASC
Precipitaciones de 06:00 a 12:00 en mm
DESCASC
Precipitaciones de 12:00 a 18:00 en mm
DESCASC
Precipitaciones de 18:00 a 24:00 en mm
DESCASC
05-04-2020 18.9 (13:00) 9.3 (01:30) 14.1 6.11 (16:50) 3.61 (16:30) 0 0 0 0 0
04-04-2020 20.8 (16:10) 7.5 (06:50) 14.1 7.5 (16:00) 3.89 (16:30) 0 0 0 0 0
03-04-2020 20.1 (15:30) 10.1 (23:20) 15.1 10 (00:50) 6.11 (10:10) 0 0 0 0 0
02-04-2020 15.6 (16:00) 12.3 (00:00) 14 9.72 (02:20) 5.83 (01:30) 4 3.8 0.2 0 0
01-04-2020 20.1 (12:30) 10.8 (00:00) 15.5 11.11 (00:50) 6.39 (23:10) 1 0 0 0.8 0.2
31-03-2020 17 (15:50) 9.1 (00:00) 13.1 13.89 (09:00) 8.33 (08:40) 10.2 9.2 1 0 0
30-03-2020 15.7 (14:30) 10.8 (00:00) 13.3 9.72 (17:30) 5.83 (16:10) 3.2 0 0 0.2 3
29-03-2020 22.3 (14:40) 4.8 (00:00) 13.5 11.11 (20:40) 5.83 (19:40) 0 0 0 0 0
28-03-2020 17.8 (14:50) 7.9 (00:00) 12.8 8.89 (10:40) 5 (10:40) 0 0 0 0 0
27-03-2020 13.4 (13:40) 8.8 (00:00) 11.1 9.17 (00:50) 5.28 (00:50) 3.8 0.2 3.4 0.2 0
26-03-2020 17.3 (13:30) 6.4 (00:00) 11.8 10 (21:20) 5.56 (11:50) 0 0 0 0 0
25-03-2020 13.2 (00:00) 7.8 (00:00) 10.5 10 (00:40) 5.28 (00:30) 12.2 0 6.8 5.2 0.2
24-03-2020 15 (00:00) 12.9 (00:00) 13.9 15 (06:40) 8.61 (06:40) 4.4 0.2 1.6 1.8 0.8
23-03-2020 18.2 (15:00) 11.7 (00:00) 15 8.33 (23:30) 5.28 (23:30) 14.8 2.6 12.2 0 0
22-03-2020 17.4 (15:20) 10.9 (03:40) 14.1 9.72 (12:20) 6.11 (13:00) 0.6 0.2 0 0 0.4
21-03-2020 14.5 (08:50) 12.8 (00:00) 13.7 8.61 (04:50) 5.28 (03:40) 4 0 0 1.2 2.8
20-03-2020 16 (12:20) 12.8 (00:00) 14.4 8.33 (12:40) 5 (09:20) 3 0 3 0 0
19-03-2020 18.4 (13:30) 13.7 (00:00) 16 8.06 (16:50) 4.72 (13:40) 0 0 0 0 0
18-03-2020 17.3 (14:40) 13.7 (00:00) 15.5 11.11 (01:20) 6.67 (14:40) 0 0 0 0 0
17-03-2020 15.1 (17:50) 10.3 (00:00) 12.7 11.39 (13:00) 7.22 (12:30) 9.4 3.2 5.8 0.4 0
16-03-2020 19.5 (13:50) 10.5 (00:00) 15 12.5 (14:40) 6.39 (14:40) 4.2 0.2 0 0.2 3.8
15-03-2020 21.5 (15:10) 7.8 (00:00) 14.7 8.61 (16:50) 5 (17:00) 0 0 0 0 0
14-03-2020 20.1 (16:30) 9.4 (00:00) 14.8 7.22 (15:10) 4.17 (15:10) 0 0 0 0 0
13-03-2020 19.3 (15:00) 12.3 (00:40) 15.8 15.83 (09:40) 8.33 (10:40) 0 0 0 0 0
12-03-2020 25.8 (16:00) 8.4 (00:00) 17.1 6.67 (14:40) 4.44 (14:20) 0 0 0 0 0
11-03-2020 26.2 (17:20) 8.4 (00:00) 17.3 6.11 (19:50) 4.44 (19:10) 0 0 0 0 0
10-03-2020 20.5 (12:30) 5.9 (00:00) 13.2 10 (18:00) 5 (14:40) 0 0 0 0 0
09-03-2020 24 (16:50) 10.4 (00:00) 17.2 9.72 (05:30) 5.56 (05:20) 0 0 0 0 0
08-03-2020 22.7 (14:40) 4.8 (00:00) 13.8 9.17 (17:20) 4.72 (15:30) 0 0 0 0 0

Gráficas

Temp. máximas Temp. mínimas Temp. medias Precipitaciones Rachas de viento máximas Velocidades máximas media en intervalos de 10 minutos

Datos horarios

Fecha y hora oficial Temperatura (ºC) Velocidad del viento (km/h) Dirección del viento Racha (km/h) Dirección de racha Precipitación (mm) Presión (hPa) Tendencia (hPa) Humedad (%)
2020-04-06 23:00:00 13.3 4 Oeste 9 Sur 0 1024 1.3 84
2020-04-06 22:00:00 14 5 Sudoeste 10 Sur 0 1023.4 1.1 82
2020-04-06 21:00:00 14.8 6 Sur 20 Sur 0 1022.7 0.5 76
2020-04-06 20:00:00 16.1 10 Sur 21 Sur 0 1022.7 0.5 69
2020-04-06 19:00:00 16.9 8 Sur 23 Sur 0 1022.3 0.1 65
2020-04-06 18:00:00 17.8 12 Sur 26 Sur 0 1022.2 -0.3 63
2020-04-06 17:00:00 18.7 10 Sudeste 23 Sudeste 0 1022.2 -0.5 57
2020-04-06 16:00:00 20.4 13 Sudeste 25 Sudeste 0 1022.2 -0.7 51
2020-04-06 15:00:00 19.9 14 Sudeste 26 Sur 0 1022.5 -0.1 52
2020-04-06 14:00:00 20.1 15 Sur 24 Sudeste 0 1022.7 0.3 51
2020-04-06 13:00:00 19.7 9 Sudeste 21 Este 0 1022.9 1 53
2020-04-06 12:00:00 18.7 9 Sudeste 22 Este 0 1022.6 1.4 59
2020-04-06 11:00:00 17.9 5 Sudeste 12 Este 0 1022.4 1.9 63
2020-04-06 10:00:00 13.6 5 Sudoeste 12 Oeste 0 1021.9 2 80
2020-04-06 09:00:00 9.8 5 Sudoeste 11 Sudoeste 0 1021.2 0.9 92
2020-04-06 08:00:00 8.9 7 Sudoeste 10 Sudoeste 0 1020.5 0.3 92
2020-04-06 07:00:00 9.2 4 Sudoeste 10 Sudoeste 0 1019.9 -0.1 92
2020-04-06 06:00:00 9.3 7 Oeste 10 Oeste 0 1020.3 -0.1 92
2020-04-06 05:00:00 8.9 8 Sudoeste 10 Sudoeste 0 1020.2 -0.3 92
2020-04-06 04:00:00 9.3 5 Sudoeste 10 Sudoeste 0 1020 -0.2 92
2020-04-06 03:00:00 9.3 7 Oeste 11 Oeste 0 1020.4 0.3 91
2020-04-06 02:00:00 9.3 7 Sudoeste 12 Sudoeste 0 1020.5 0.7 90
2020-04-06 01:00:00 9.5 6 Sudoeste 12 Sudoeste 0 1020.2 1 89
2020-04-06 00:00:00 10.1 8 Sudoeste 10 Sudoeste 0 1020.1 1.1 87
2020-04-05 23:00:00 11.2 4 Oeste 10 Oeste 0 1019.8 1.3 83
2020-04-05 22:00:00 12.3 4 Sudoeste 7 Sudoeste 0 1019.2 0.7 78
2020-04-05 21:00:00 14.8 3 Sudeste 12 Este 0 1019 0.5 65
2020-04-05 20:00:00 16.4 6 Este 18 Este 0 1018.5 -0.7 59
2020-04-05 19:00:00 17.6 8 Este 19 Este 0 1018.5 -1 55
2020-04-05 18:00:00 17.8 10 Este 22 Este 0 1018.5 -1.4 54
2020-04-05 17:00:00 18 11 Este 22 Este 0 1019.2 -1 52
2020-04-05 16:00:00 18.7 8 Este 20 Este 0 1019.5 -1.1 49
2020-04-05 15:00:00 18.1 11 Nordeste 21 Nordeste 0 1019.9 -0.6 52
2020-04-05 14:00:00 18.1 9 Este 18 Este 0 1020.2 -0.1 53
2020-04-05 13:00:00 18.7 7 Este 17 Nordeste 0 1020.6 0.5 51
2020-04-05 12:00:00 17.9 10 Nordeste 19 Nordeste 0 1020.5 0.9 52
2020-04-05 11:00:00 17.5 7 Este 15 Nordeste 0 1020.3 1.3 57
2020-04-05 10:00:00 14.1 8 Oeste 13 Oeste 0 1020.1 1.4 72
2020-04-05 09:00:00 9.5 8 Sudoeste 11 Sudoeste 0 1019.6 1 88
2020-04-05 08:00:00 10.1 7 Oeste 10 Oeste 0 1019 0.4 88
2020-04-05 07:00:00 9.6 8 Sudoeste 10 Oeste 0 1018.7 -0.3 91
2020-04-05 06:00:00 9.8 8 Oeste 13 Oeste 0 1018.6 -0.7 92
2020-04-05 05:00:00 9.4 9 Sudoeste 11 Sudoeste 0 1018.6 -0.7 93
2020-04-05 04:00:00 9.3 7 Sudoeste 10 Sudoeste 0 1019 -0.4 92
2020-04-05 03:00:00 9.5 6 Sudoeste 9 Sudoeste 0 1019.3 -0.3 92
2020-04-05 02:00:00 9.5 5 Oeste 6 Oeste 0 1019.3 -0.2 91
2020-04-05 01:00:00 9.6 3 Sudoeste 6 Sudoeste 0 1019.4 0.1 86
2020-04-05 00:00:00 11.2 3 Oeste 10 Sudoeste 0 1019.6 0.7 83
2020-04-04 23:00:00 11.9 6 Oeste 9 Oeste 0 1019.5 1 83
2020-04-04 22:00:00 12.1 4 Oeste 10 Sur 0 1019.3 1.1 78
2020-04-04 21:00:00 14 5 Sur 16 Sur 0 1018.9 1 71
2020-04-04 20:00:00 16.5 8 Sur 20 Sur 0 1018.5 0.4 61
2020-04-04 19:00:00 16.1 8 Sur 22 Sur 0 1018.2 -0.4 63
2020-04-04 18:00:00 16.8 11 Sur 26 Sur 0 1017.9 -0.9 57
2020-04-04 17:00:00 19.9 10 Sur 26 Sur 0 1018.1 -0.9 50
2020-04-04 16:00:00 20 14 Sur 27 Sur 0 1018.6 -0.6 51
2020-04-04 15:00:00 19.6 13 Sur 24 Sur 0 1018.8 -0.3 50
2020-04-04 14:00:00 19.6 11 Sudeste 24 Sudeste 0 1019 0 50
2020-04-04 13:00:00 19.4 13 Sur 23 Sur 0 1019.2 0.6 51
2020-04-04 12:00:00 18.8 7 Sur 17 Sur 0 1019.1 0.9 54
2020-04-04 11:00:00 17 3 Norte 9 Nordeste 0 1019 1.1 64
2020-04-04 10:00:00 12.5 4 Sudoeste 10 Oeste 0 1018.6 1 75
2020-04-04 09:00:00 8.9 8 Sudoeste 11 Sudoeste 0 1018.2 0.7 90
2020-04-04 08:00:00 7.6 9 Sudoeste 12 Oeste 0 1017.9 0.5 90
2020-04-04 07:00:00 7.6 9 Sudoeste 12 Sudoeste 0 1017.6 0.2 91
2020-04-04 06:00:00 8.1 5 Oeste 12 Sudoeste 0 1017.5 0.1 91
2020-04-04 05:00:00 8.2 5 Oeste 9 Sudoeste 0 1017.4 -0.3 87
2020-04-04 04:00:00 10.1 0 Calma 11 Oeste 0 1017.4 -0.4 82
2020-04-04 03:00:00 11.9 7 Oeste 17 Oeste 0 1017.4 -0.3 78
2020-04-04 02:00:00 11.9 8 Sudoeste 21 Oeste 0 1017.7 0.2 80
2020-04-04 01:00:00 11.7 5 Oeste 15 Sudoeste 0 1017.8 1.1 82
2020-04-04 00:00:00 10.6 5 Oeste 10 Oeste 0 1017.7 1.5 86
2020-04-03 23:00:00 10.4 3 Sudoeste 8 Oeste 0 1017.5 1.6 81
2020-04-03 22:00:00 11.6 3 Oeste 8 Sudoeste 0 1016.7 0.9 72
2020-04-03 21:00:00 13.5 5 Sudoeste 12 Sur 0 1016.2 0.4 60
2020-04-03 20:00:00 16.5 8 Sur 17 Este 0 1015.9 0.2 49
2020-04-03 19:00:00 17.4 8 Este 18 Este 0 1015.8 0 43
2020-04-03 18:00:00 17.9 10 Este 19 Este 0 1015.8 -0.2 51
2020-04-03 17:00:00 16.9 12 Nordeste 20 Nordeste 0 1015.7 -0.5 58
2020-04-03 16:00:00 19 9 Este 17 Nordeste 0 1015.8 -0.5 44
2020-04-03 15:00:00 19.5 9 Norte 22 Norte 0 1016 -0.1 37
2020-04-03 14:00:00 18.8 14 Norte 24 Norte 0 1016.2 0.8 43
2020-04-03 13:00:00 18.6 12 Norte 27 Noroeste 0 1016.3 1.6 51
2020-04-03 12:00:00 17.6 13 Norte 28 Noroeste 0 1016.1 1.8 51
2020-04-03 11:00:00 16.5 20 Noroeste 32 Noroeste 0 1015.4 1.7 50
2020-04-03 10:00:00 14.4 19 Noroeste 31 Noroeste 0 1014.7 1.5 67
2020-04-03 09:00:00 12.5 11 Noroeste 24 Noroeste 0 1014.3 1.4 76
2020-04-03 08:00:00 11.4 9 Noroeste 24 Oeste 0 1013.7 1.2 80
2020-04-03 07:00:00 11.8 12 Noroeste 27 Noroeste 0 1013.2 0.3 81
2020-04-03 06:00:00 11.9 14 Noroeste 30 Noroeste 0 1012.9 -0.2 81
2020-04-03 05:00:00 11.8 14 Noroeste 27 Noroeste 0 1012.5 -0.9 82
2020-04-03 04:00:00 11.7 13 Noroeste 23 Noroeste 0 1012.9 -0.2 79
2020-04-03 03:00:00 11.9 12 Noroeste 30 Norte 0 1013.1 0.1 83
2020-04-03 02:00:00 12.2 17 Norte 32 Norte 0 1013.4 0.7 80
2020-04-03 01:00:00 12.1 18 Norte 36 Norte 0 1013.1 0.9 85
2020-04-03 00:00:00 12.8 15 Norte 31 Norte 0 1013 1.4 81
2020-04-02 23:00:00 13 15 Norte 31 Norte 0 1012.7 1.5 80
2020-04-02 22:00:00 12.9 18 Norte 29 Norte 0 1012.2 1.6 80
2020-04-02 21:00:00 12.8 12 Norte 32 Norte 0 1011.6 1.3 81
2020-04-02 20:00:00 13.1 18 Norte 33 Norte 0 1011.2 0.8 79
2020-04-02 19:00:00 13.9 18 Norte 34 Nordeste 0 1010.6 0.2 74
2020-04-02 18:00:00 14.2 14 Norte 32 Norte 0 1010.3 -0.5 72
2020-04-02 17:00:00 14.8 18 Norte 30 Norte 0 1010.4 -0.5 71
2020-04-02 16:00:00 15.5 17 Norte 31 Nordeste 0 1010.4 -0.7 67
2020-04-02 15:00:00 15 13 Norte 26 Norte 0 1010.8 -0.3 71
2020-04-02 14:00:00 14.9 15 Norte 26 Norte 0 1010.9 0.2 72
2020-04-02 13:00:00 15 14 Norte 28 Nordeste 0 1011.1 0.8 72
2020-04-02 12:00:00 13.3 12 Norte 28 Noroeste 0 1011.1 1.5 78
2020-04-02 11:00:00 13.3 13 Norte 25 Nordeste 0 1010.7 1.4 78
2020-04-02 10:00:00 12.6 12 Norte 28 Norte 0 1010.3 1 83
2020-04-02 09:00:00 12.4 12 Norte 30 Norte 0 1009.6 0.5 85
2020-04-02 08:00:00 12.4 16 Norte 30 Nordeste 0.2 1009.3 -0.4 87
2020-04-02 07:00:00 12.6 15 Norte 32 Norte 0 1009.3 -1 85
2020-04-02 06:00:00 12.5 19 Norte 31 Norte 0 1009.1 -1.6 86
2020-04-02 05:00:00 12.4 14 Norte 28 Norte 0 1009.7 -0.4 88
2020-04-02 04:00:00 12.3 14 Norte 31 Norte 0.2 1010.3 -1 90
2020-04-02 03:00:00 12.5 18 Norte 35 Norte 0.2 1010.7 -0.5 90
2020-04-02 02:00:00 12.5 20 Norte 33 Nordeste 2.6 1010.1 -0.7 91
2020-04-02 01:00:00 12.6 11 Norte 24 Norte 0.8 1011.3 -0.1 87
2020-04-02 00:00:00 12.6 18 Norte 36 Nordeste 0 1011.2 1.1 86
2020-04-01 23:00:00 12.4 18 Norte 31 Nordeste 0.2 1010.8 1.2 88
2020-04-01 22:00:00 14.1 8 Noroeste 25 Norte 0 1011.4 2.5 76
2020-04-01 21:00:00 14.5 14 Nordeste 23 Nordeste 0 1010.1 1 78
2020-04-01 20:00:00 15.4 10 Nordeste 18 Nordeste 0 1009.6 0.6 86
2020-04-01 19:00:00 17 5 Sudeste 10 Sudeste 0 1008.9 -0.2 76
2020-04-01 18:00:00 16.1 5 Sudeste 23 Este 0 1009.1 -0.7 80
2020-04-01 17:00:00 17.1 13 Nordeste 22 Nordeste 0.4 1009 -1.1 80
2020-04-01 16:00:00 17 12 Este 21 Este 0 1009.1 -1.2 74
2020-04-01 15:00:00 16.8 6 Nordeste 15 Este 0.4 1009.8 -0.6 79
2020-04-01 14:00:00 17.2 10 Nordeste 21 Nordeste 0 1010.1 -0.5 65
2020-04-01 13:00:00 18.5 12 Nordeste 21 Nordeste 0 1010.3 0 61
2020-04-01 12:00:00 19.5 3 Sudeste 13 Sudoeste 0 1010.4 0.3 52
2020-04-01 11:00:00 15.3 6 Oeste 13 Oeste 0 1010.6 1 73
2020-04-01 10:00:00 12.3 6 Oeste 14 Oeste 0 1010.3 0.7 86
2020-04-01 09:00:00 11.6 6 Oeste 10 Oeste 0 1010.1 0.8 90
2020-04-01 08:00:00 11.6 4 Sudoeste 14 Sudoeste 0 1009.6 0.1 87
2020-04-01 07:00:00 10.9 3 Sudoeste 7 Sudoeste 0 1009.6 -0.2 89
2020-04-01 06:00:00 11.1 4 Sudoeste 9 Sudoeste 0 1009.3 -0.7 86
2020-04-01 05:00:00 11.9 6 Oeste 15 Oeste 0 1009.5 -0.8 83
2020-04-01 04:00:00 12.5 7 Oeste 14 Oeste 0 1009.8 -0.5 80
2020-04-01 03:00:00 13.1 8 Sudoeste 23 Oeste 0 1010 -0.2 78
2020-04-01 02:00:00 13.1 5 Oeste 35 Oeste 0 1010.3 0.3 80
2020-04-01 01:00:00 13.1 18 Oeste 40 Oeste 0 1010.3 0.8 81
2020-04-01 00:00:00 13 14 Oeste 32 Oeste 0 1010.2 1.3 84
2020-03-31 23:00:00 13.1 13 Oeste 34 Oeste 0 1010 1.7 84
2020-03-31 22:00:00 13 17 Noroeste 36 Noroeste 0 1009.5 1.8 83
2020-03-31 21:00:00 13.4 21 Noroeste 37 Oeste 0 1008.9 1.4 82
2020-03-31 20:00:00 14.2 18 Noroeste 37 Noroeste 0 1008.3 1 79
2020-03-31 19:00:00 14.7 22 Noroeste 41 Noroeste 0 1007.7 0.3 77
2020-03-31 18:00:00 15 23 Noroeste 42 Noroeste 0 1007.5 -0.3 76
2020-03-31 17:00:00 15.2 24 Noroeste 44 Noroeste 0 1007.3 -0.2 73
2020-03-31 16:00:00 16.9 19 Noroeste 36 Noroeste 0 1007.4 -0.4 69
2020-03-31 15:00:00 13.9 18 Noroeste 35 Noroeste 0 1007.8 -0.5 77
2020-03-31 14:00:00 15 18 Noroeste 39 Noroeste 0 1007.5 -1 74
2020-03-31 13:00:00 11.9 23 Noroeste 43 Noroeste 0 1007.8 -0.5 85
2020-03-31 12:00:00 11.9 10 Noroeste 36 Noroeste 0.6 1008.3 0.6 90
2020-03-31 11:00:00 10.8 10 Oeste 41 Oeste 0.4 1008.5 0.4 89
2020-03-31 10:00:00 10.4 9 Noroeste 36 Noroeste 0 1008.3 0.6 87
2020-03-31 09:00:00 9.9 26 Noroeste 50 Noroeste 0 1007.7 -0.8 88
2020-03-31 08:00:00 9.5 21 Oeste 41 Noroeste 0 1008.1 -0.9 90
2020-03-31 07:00:00 9.3 22 Noroeste 43 Noroeste 0 1007.7 -1.7 89
2020-03-31 06:00:00 9.5 20 Oeste 38 Oeste 0 1008.5 -1.5 89
2020-03-31 05:00:00 9.7 20 Oeste 37 Oeste 0 1009 -1.4 92
2020-03-31 04:00:00 9.9 22 Oeste 40 Oeste 0 1009.4 -1.9 93
2020-03-31 03:00:00 10.2 18 Oeste 36 Oeste 2.2 1010 -1.8 94
2020-03-31 02:00:00 11 11 Oeste 28 Noroeste 4.8 1010.4 -1.5 94
2020-03-31 01:00:00 11.2 14 Norte 29 Norte 2.2 1011.3 -0.9 93
2020-03-31 00:00:00 11 16 Norte 29 Norte 1.8 1011.8 -0.3 93
2020-03-30 23:00:00 10.8 17 Norte 33 Nordeste 1.2 1011.9 -0.2 91
2020-03-30 22:00:00 11.3 14 Norte 32 Norte 0 1012.2 0.1 82
2020-03-30 21:00:00 11.2 17 Norte 32 Norte 0 1012.1 0.2 76
2020-03-30 20:00:00 11.7 18 Norte 30 Norte 0 1012.1 0.2 67
2020-03-30 19:00:00 12.2 14 Nordeste 33 Nordeste 0 1012.1 -0.3 61
2020-03-30 18:00:00 12.8 17 Norte 35 Norte 0 1011.9 -0.8 59
2020-03-30 17:00:00 13.5 19 Nordeste 32 Nordeste 0 1011.9 -0.9 54
2020-03-30 16:00:00 14.8 18 Nordeste 27 Norte 0 1012.4 -1.1 53
2020-03-30 15:00:00 15.6 16 Nordeste 29 Nordeste 0 1012.7 -0.2 54
2020-03-30 14:00:00 14.7 19 Nordeste 32 Nordeste 0.2 1012.8 0.3 59
2020-03-30 13:00:00 13.6 16 Nordeste 26 Nordeste 0 1013.5 1.4 63
2020-03-30 12:00:00 14.9 16 Nordeste 29 Nordeste 0 1012.9 1 60
2020-03-30 11:00:00 15.2 17 Nordeste 29 Nordeste 0 1012.5 1 62
2020-03-30 10:00:00 14.3 14 Nordeste 25 Nordeste 0 1012.1 1.1 66
2020-03-30 09:00:00 13.5 9 Nordeste 22 Nordeste 0 1011.9 1.1 75
2020-03-30 08:00:00 13.2 8 Norte 22 Norte 0 1011.5 0.4 73
2020-03-30 07:00:00 13.5 10 Noroeste 32 Noroeste 0 1011 -0.4 74
2020-03-30 06:00:00 13.6 14 Noroeste 30 Noroeste 0 1010.8 -0.8 77
2020-03-30 05:00:00 13.1 5 Oeste 16 Oeste 0 1011.1 -0.9 73
2020-03-30 04:00:00 13.4 7 Oeste 12 Sudoeste 0 1011.4 -1 67
2020-03-30 03:00:00 15.2 11 Sudoeste 24 Sudoeste 0 1011.6 -1 62
2020-03-30 02:00:00 15.1 15 Sudoeste 27 Oeste 0 1012 -0.9 63
2020-03-30 01:00:00 15.1 13 Oeste 26 Oeste 0 1012.4 -0.4 64
2020-03-30 00:00:00 15.1 15 Oeste 30 Sudoeste 0 1012.6 -0.1 64
2020-03-29 23:00:00 15.1 15 Sudoeste 30 Oeste 0 1012.9 0.5 63
2020-03-29 22:00:00 15.2 13 Oeste 26 Oeste 0 1012.8 0.2 55
2020-03-29 21:00:00 15.2 9 Oeste 40 Sudoeste 0 1012.7 -0.5 56
2020-03-29 20:00:00 16.6 19 Sudoeste 39 Sudoeste 0 1012.4 -1.4 54
2020-03-29 19:00:00 18.8 18 Sur 36 Sudoeste 0 1012.6 -1.7 38
2020-03-29 18:00:00 20.4 14 Sur 37 Sur 0 1013.2 -1.7 32
2020-03-29 17:00:00 21.2 17 Sur 35 Sur 0 1013.8 -1.7 29
2020-03-29 16:00:00 21.8 15 Sudoeste 34 Sudoeste 0 1014.3 -1.7 29
2020-03-29 15:00:00 21.7 16 Sudoeste 30 Sudoeste 0 1014.9 -1.5 33
2020-03-29 14:00:00 20 10 Nordeste 15 Este 0 1015.5 -1 38
2020-03-29 13:00:00 19 8 Nordeste 16 Nordeste 0 1016 -0.3 39
2020-03-29 12:00:00 18.8 7 Este 12 Este 0 1016.4 0.1 43
2020-03-29 11:00:00 16.2 5 Sudoeste 10 Oeste 0 1016.5 0.3 50
2020-03-29 10:00:00 11.2 8 Sudoeste 15 Sudoeste 0 1016.3 0.1 73
2020-03-29 09:00:00 5.9 12 Sudoeste 15 Sudoeste 0 1016.3 -0.1 87
2020-03-29 08:00:00 5.1 9 Sudoeste 14 Oeste 0 1016.2 -0.6 88
2020-03-29 07:00:00 4.9 10 Sudoeste 12 Sudoeste 0 1016.2 -0.9 88
2020-03-29 06:00:00 5.5 7 Sudoeste 13 Oeste 0 1016.4 -1.3 84
2020-03-29 05:00:00 6.1 9 Oeste 12 Sudoeste 0 1016.8 -1.2 83
2020-03-29 03:00:00 6.4 8 Sudoeste 11 Oeste 0 1017.7 -0.4 81
2020-03-29 01:00:00 7.4 9 Sudoeste 14 Oeste 0 1018 -0.1 79
2020-03-29 00:00:00 8.8 9 Oeste 13 Oeste 0 1018.2 0.6 73
2020-03-28 23:00:00 8.4 7 Oeste 12 Oeste 0 1018.1 1.2 79
2020-03-28 22:00:00 9.5 4 Oeste 9 Noroeste 0 1018.1 1.6 76
2020-03-28 21:00:00 10.1 3 Oeste 6 Oeste 0 1017.6 1.3 72
2020-03-28 20:00:00 12.4 5 Norte 14 Norte 0 1016.9 0.7 62
2020-03-28 19:00:00 14.3 8 Norte 20 Noroeste 0 1016.5 0.3 54
2020-03-28 18:00:00 15.4 12 Noroeste 25 Noroeste 0 1016.3 -0.3 47
2020-03-28 17:00:00 16.7 16 Noroeste 27 Norte 0 1016.2 -0.8 41
2020-03-28 16:00:00 17.2 13 Norte 26 Norte 0 1016.2 -1 39
2020-03-28 15:00:00 17 17 Norte 31 Noroeste 0 1016.6 -0.8 40
2020-03-28 14:00:00 16.8 14 Norte 30 Noroeste 0 1017 -0.4 42
2020-03-28 13:00:00 16.6 15 Norte 29 Norte 0 1017.2 0.5 44
2020-03-28 12:00:00 14.7 15 Noroeste 30 Norte 0 1017.4 0.9 49
2020-03-28 11:00:00 13.8 15 Noroeste 32 Noroeste 0 1017.4 1.7 54
2020-03-28 10:00:00 11.5 18 Noroeste 30 Noroeste 0 1016.7 1.4 61
2020-03-28 09:00:00 10.1 12 Noroeste 27 Noroeste 0 1016.5 1.2 73
2020-03-28 08:00:00 10.1 16 Noroeste 30 Noroeste 0 1015.7 0.7 75
2020-03-28 07:00:00 9.7 15 Noroeste 25 Noroeste 0 1015.3 0.4 78
2020-03-28 06:00:00 10 14 Noroeste 24 Noroeste 0 1015.3 0 77
2020-03-28 05:00:00 10.2 11 Noroeste 18 Noroeste 0 1015 -0.2 74
2020-03-28 04:00:00 10 10 Noroeste 17 Norte 0 1014.9 -0.2 73
2020-03-28 03:00:00 9.8 9 Noroeste 19 Noroeste 0 1015.3 0.2 76
2020-03-28 02:00:00 8.4 8 Noroeste 13 Norte 0 1015.2 0.5 84
2020-03-28 01:00:00 9.5 9 Noroeste 14 Noroeste 0 1015.1 0.8 76
2020-03-28 00:00:00 10.1 6 Oeste 16 Noroeste 0 1015.1 1.3 78
2020-03-27 23:00:00 10.7 7 Noroeste 18 Norte 0 1014.7 1.7 75
2020-03-27 22:00:00 10.2 11 Noroeste 17 Noroeste 0 1014.3 1.3 78
2020-03-27 21:00:00 10.3 5 Noroeste 20 Noroeste 0 1013.8 1.3 78
2020-03-27 20:00:00 10.5 13 Noroeste 24 Noroeste 0 1013 0.8 78
2020-03-27 19:00:00 11.3 10 Noroeste 22 Noroeste 0 1013 0.7 73
2020-03-27 18:00:00 13 12 Nordeste 21 Nordeste 0 1012.5 -0.1 58
2020-03-27 17:00:00 13.2 9 Nordeste 21 Nordeste 0 1012.2 -0.5 56
2020-03-27 16:00:00 12.5 11 Norte 20 Norte 0 1012.3 -0.2 61
2020-03-27 15:00:00 11.8 12 Norte 25 Nordeste 0.2 1012.6 -0.1 70
2020-03-27 14:00:00 13.1 8 Este 26 Este 0 1012.7 0.3 54
2020-03-27 13:00:00 13.2 9 Nordeste 23 Nordeste 0 1012.5 0.5 59
2020-03-27 12:00:00 12.6 9 Este 18 Este 0 1012.7 1.3 59
2020-03-27 11:00:00 12.9 7 Este 18 Nordeste 0 1012.4 1.1 60
2020-03-27 10:00:00 12.3 9 Nordeste 18 Nordeste 0 1012 1.4 67
2020-03-27 09:00:00 11.2 7 Nordeste 19 Nordeste 1.6 1011.4 1 82
2020-03-27 08:00:00 9.6 9 Norte 21 Nordeste 1.8 1011.3 0.6 89
2020-03-27 07:00:00 8.8 5 Oeste 14 Norte 0 1010.6 0 83
2020-03-27 06:00:00 9.6 9 Norte 21 Norte 0 1010.4 -0.6 78
2020-03-27 05:00:00 9.8 11 Norte 28 Norte 0.2 1010.7 -0.5 80
2020-03-27 04:00:00 10.2 8 Norte 16 Norte 0 1010.6 -0.4 74
2020-03-27 03:00:00 9.6 9 Norte 18 Noroeste 0 1011 0.1 77
2020-03-27 02:00:00 10 9 Norte 29 Norte 0 1011.2 0.8 68
2020-03-27 01:00:00 10.5 18 Norte 33 Norte 0 1011 0.7 69
2020-03-27 00:00:00 11.2 15 Norte 31 Norte 0 1010.9 1.1 64
2020-03-26 23:00:00 10.6 13 Norte 28 Nordeste 0 1010.4 1.4 64
2020-03-26 22:00:00 10.6 16 Nordeste 36 Nordeste 0 1010.3 2 66
2020-03-26 21:00:00 11.1 13 Norte 25 Norte 0 1009.8 2.1 60
2020-03-26 20:00:00 11.3 13 Norte 22 Norte 0 1009 2.2 65
2020-03-26 19:00:00 12.2 10 Norte 26 Norte 0 1008.3 1.9 61
2020-03-26 18:00:00 13.7 19 Norte 35 Norte 0 1007.7 1.4 50
2020-03-26 17:00:00 14.7 14 Nordeste 23 Nordeste 0 1006.8 0.4 46
2020-03-26 16:00:00 15.7 8 Nordeste 17 Nordeste 0 1006.4 -0.4 37
2020-03-26 15:00:00 15.6 6 Nordeste 15 Nordeste 0 1006.3 -0.9 36
2020-03-26 14:00:00 15.1 13 Norte 30 Norte 0 1006.4 -0.9 34
2020-03-26 13:00:00 16.9 15 Noroeste 25 Noroeste 0 1006.8 -0.3 40
2020-03-26 12:00:00 15.4 16 Noroeste 31 Norte 0 1007.2 -0.2 54
2020-03-26 11:00:00 13.1 17 Noroeste 34 Norte 0 1007.3 -0.3 62
2020-03-26 10:00:00 13.9 15 Noroeste 24 Noroeste 0 1007.1 -0.6 65
2020-03-26 09:00:00 10.3 8 Oeste 14 Oeste 0 1007.4 -0.6 85
2020-03-26 08:00:00 7.1 6 Oeste 12 Sudoeste 0 1007.6 -1 93
2020-03-26 07:00:00 7.2 7 Oeste 10 Oeste 0 1007.7 -1.8 91
2020-03-26 06:00:00 7.8 5 Oeste 12 Oeste 0 1008 -2.7 89
2020-03-26 05:00:00 8.7 6 Sudoeste 17 Sudoeste 0 1008.6 -3.1 86
2020-03-26 04:00:00 9.2 6 Sudoeste 17 Sudoeste 0 1009.5 -3.3 83
2020-03-26 03:00:00 9.2 9 Oeste 21 Oeste 0 1010.7 -3.2 84
2020-03-26 02:00:00 8.2 6 Sudoeste 14 Sudoeste 0 1011.7 -3 90
2020-03-26 01:00:00 7.9 6 Sudoeste 12 Sudoeste 0 1012.8 -2.2 92
2020-03-26 00:00:00 7.8 5 Sudoeste 10 Sudoeste 0 1013.9 -1.2 92
2020-03-25 23:00:00 8 6 Oeste 12 Oeste 0.2 1014.7 -0.2 92
2020-03-25 22:00:00 8.6 4 Oeste 6 Oeste 0 1015 0.2 89
2020-03-25 21:00:00 9.8 4 Sudoeste 6 Sudoeste 0 1015.1 -0.1 89
2020-03-25 20:00:00 10 2 Sur 6 Sudoeste 0 1014.9 -0.3 87
2020-03-25 19:00:00 10.4 3 Sur 6 Nordeste 0 1014.8 -0.8 84
2020-03-25 18:00:00 10.4 4 Norte 13 Noroeste 0 1015.2 -0.3 82
2020-03-25 17:00:00 10.9 6 Noroeste 15 Noroeste 0.6 1015.2 -0.8 84
2020-03-25 16:00:00 10.3 10 Noroeste 22 Noroeste 0 1015.6 -0.4 81
2020-03-25 15:00:00 10.9 10 Noroeste 19 Norte 0.4 1015.5 -0.7 82
2020-03-25 14:00:00 10.1 11 Noroeste 27 Noroeste 1.8 1016 -0.1 86
2020-03-25 13:00:00 10.3 5 Oeste 14 Oeste 2.4 1016 0.2 88
2020-03-25 12:00:00 10 7 Oeste 21 Oeste 3.8 1016.2 0.9 88
2020-03-25 11:00:00 10.8 6 Sudoeste 18 Oeste 0 1016.1 0.9 84
2020-03-25 10:00:00 11.4 3 Oeste 23 Norte 0.4 1015.8 1.1 85
2020-03-25 09:00:00 10.6 13 Norte 23 Norte 0.6 1015.3 0.6 81
2020-03-25 08:00:00 10 14 Nordeste 27 Nordeste 2 1015.2 0.8 82
2020-03-25 07:00:00 12.1 17 Norte 29 Nordeste 0 1014.7 0.1 57
2020-03-25 06:00:00 12.5 14 Nordeste 31 Nordeste 0 1014.7 -0.2 56
2020-03-25 05:00:00 12.4 13 Nordeste 30 Nordeste 0 1014.4 -0.9 61
2020-03-25 04:00:00 12 11 Nordeste 26 Nordeste 0 1014.6 -0.8 61
2020-03-25 03:00:00 12.7 15 Nordeste 31 Nordeste 0 1014.9 -0.7 57
2020-03-25 02:00:00 12.7 16 Nordeste 32 Nordeste 0 1015.3 -0.2 56
2020-03-25 01:00:00 12.9 17 Nordeste 36 Nordeste 0 1015.4 0.1 54
2020-03-25 00:00:00 13.2 19 Nordeste 36 Nordeste 0 1015.6 0.5 56
2020-03-24 23:00:00 13.2 19 Nordeste 39 Nordeste 0 1015.5 1 60
2020-03-24 22:00:00 13.3 27 Nordeste 50 Nordeste 0 1015.3 1.4 65
2020-03-24 21:00:00 13.5 28 Nordeste 44 Nordeste 0 1015.1 1.6 63
2020-03-24 20:00:00 13.5 26 Nordeste 48 Nordeste 0 1014.5 1.2 73
2020-03-24 19:00:00 13.4 28 Nordeste 48 Nordeste 0.8 1013.9 0.3 81
2020-03-24 18:00:00 13.1 25 Nordeste 48 Nordeste 1.8 1013.5 -0.5 88
2020-03-24 17:00:00 14.6 26 Nordeste 44 Nordeste 0 1013.3 -1.3 73
2020-03-24 16:00:00 14.5 26 Nordeste 45 Norte 0 1013.6 -1.4 76
2020-03-24 15:00:00 14.6 25 Nordeste 44 Norte 0 1014 -1.1 75
2020-03-24 14:00:00 14.5 27 Nordeste 44 Nordeste 0 1014.6 -0.4 77
2020-03-24 13:00:00 14.8 23 Nordeste 41 Nordeste 0 1015 0.5 75
2020-03-24 12:00:00 14.7 22 Nordeste 40 Nordeste 0.2 1015.1 1 79
2020-03-24 11:00:00 14.3 23 Nordeste 53 Nordeste 0.2 1015 0.9 81
2020-03-24 10:00:00 14.5 26 Nordeste 44 Nordeste 0.2 1014.5 1.1 77
2020-03-24 09:00:00 13.8 26 Nordeste 45 Nordeste 0.8 1014.1 0.5 86
2020-03-24 08:00:00 14.1 24 Nordeste 40 Nordeste 0.2 1014.1 -0.4 82
2020-03-24 07:00:00 14.6 24 Nordeste 54 Nordeste 0 1013.4 -0.8 80
2020-03-24 06:00:00 14.4 19 Nordeste 36 Nordeste 0.2 1013.6 -0.9 84
2020-03-24 05:00:00 14.5 17 Nordeste 34 Nordeste 0 1014.5 -0.4 80
2020-03-24 04:00:00 14.7 19 Nordeste 33 Nordeste 0 1014.2 -0.6 77
2020-03-24 03:00:00 14.9 18 Nordeste 40 Nordeste 0 1014.5 -0.3 76
2020-03-24 02:00:00 14.9 18 Nordeste 35 Nordeste 0 1014.9 -0.1 75
2020-03-24 01:00:00 14.8 18 Nordeste 28 Nordeste 0 1014.8 -0.5 77
2020-03-24 00:00:00 15 17 Nordeste 30 Nordeste 0 1014.8 -0.1 75
2020-03-23 23:00:00 15 15 Nordeste 27 Nordeste 0 1015 0.2 77
2020-03-23 22:00:00 15 9 Nordeste 24 Nordeste 0 1015.3 0.5 81
2020-03-23 21:00:00 15.1 13 Nordeste 27 Nordeste 0 1014.9 0.6 80
2020-03-23 20:00:00 15.1 10 Este 28 Este 0 1014.8 0.7 77
2020-03-23 19:00:00 15.4 8 Este 20 Este 0 1014.8 0.8 78
2020-03-23 18:00:00 15.9 9 Este 20 Nordeste 0 1014.3 -0.3 77
2020-03-23 17:00:00 16.2 10 Este 20 Nordeste 0 1014.1 -1 76
2020-03-23 16:00:00 17.1 12 Nordeste 22 Este 0 1014 -1.4 74
2020-03-23 15:00:00 17.8 10 Este 21 Este 0 1014.6 -0.8 71
2020-03-23 14:00:00 17.7 10 Este 23 Este 0 1015.1 -0.2 74
2020-03-23 13:00:00 16.3 9 Nordeste 18 Nordeste 0 1015.4 0.3 83
2020-03-23 12:00:00 15.6 11 Nordeste 17 Nordeste 0 1015.4 1 89
2020-03-23 11:00:00 14.2 0 Calma 4 Sur 0 1015.3 1.5 93
2020-03-23 10:00:00 13.2 3 Sudoeste 12 Oeste 0 1015.1 1.7 94
2020-03-23 09:00:00 12.3 4 Oeste 15 Sur 0 1014.4 1.4 95
2020-03-23 08:00:00 11.8 4 Oeste 12 Oeste 1.2 1013.8 1 95
2020-03-23 07:00:00 11.8 4 Sudoeste 18 Oeste 11 1013.4 0.7 95
2020-03-23 06:00:00 12 8 Sudoeste 23 Oeste 2.4 1013 0 94
2020-03-23 05:00:00 12.1 2 Sur 10 Sudoeste 0 1012.8 -0.3 95
2020-03-23 04:00:00 12 4 Sudoeste 8 Sudoeste 0.2 1012.7 -0.9 95
2020-03-23 03:00:00 12.2 5 Sudoeste 10 Oeste 0 1013 -0.4 95
2020-03-23 02:00:00 12.2 3 Oeste 8 Oeste 0 1013.1 -0.1 95
2020-03-23 01:00:00 12.2 6 Sudoeste 9 Sudoeste 0 1013.6 0.9 94
2020-03-23 00:00:00 12.4 6 Sudoeste 9 Oeste 0.2 1013.4 1.1 94
2020-03-22 23:00:00 12.6 4 Oeste 6 Sudoeste 0.2 1013.2 1.5 93
2020-03-22 22:00:00 13 4 Oeste 6 Oeste 0 1012.7 1.3 91
2020-03-22 21:00:00 13.5 3 Oeste 6 Oeste 0 1012.3 1.3 86
2020-03-22 20:00:00 14.2 0 Calma 9 Este 0 1011.7 1.1 82
2020-03-22 19:00:00 14.7 4 Este 20 Nordeste 0 1011.4 0.7 80
2020-03-22 18:00:00 14.8 9 Nordeste 22 Norte 0 1011 0.2 82
2020-03-22 17:00:00 15.7 10 Norte 23 Norte 0 1010.6 -0.7 74
2020-03-22 16:00:00 15.4 11 Norte 23 Norte 0 1010.7 -0.6 74
2020-03-22 15:00:00 16.3 12 Norte 24 Noroeste 0 1010.8 -0.5 70
2020-03-22 14:00:00 15.3 13 Noroeste 30 Noroeste 0 1011.3 0.2 74
2020-03-22 13:00:00 16.5 22 Noroeste 35 Norte 0 1011.3 0.5 70
2020-03-22 12:00:00 14.9 18 Norte 33 Norte 0 1011.3 1 76
2020-03-22 11:00:00 15.7 11 Noroeste 24 Oeste 0 1011.1 0.7 71
2020-03-22 10:00:00 15.2 11 Oeste 22 Oeste 0 1010.8 1 76
2020-03-22 09:00:00 12.7 6 Oeste 17 Oeste 0 1010.3 0.5 86
2020-03-22 08:00:00 11.7 5 Oeste 12 Sudoeste 0 1010.4 0.7 91
2020-03-22 07:00:00 11.6 4 Sudoeste 12 Oeste 0 1009.8 -0.2 91
2020-03-22 06:00:00 11.2 6 Sudoeste 10 Sudoeste 0 1009.8 -0.7 92
2020-03-22 05:00:00 11.1 5 Sudoeste 12 Oeste 0 1009.7 -1.2 91
2020-03-22 04:00:00 11 8 Oeste 21 Sudoeste 0 1010 -1.3 92
2020-03-22 03:00:00 11.1 4 Sudoeste 11 Noroeste 0 1010.5 -1 91
2020-03-22 02:00:00 11.5 4 Sudoeste 21 Noroeste 0 1010.9 -0.8 89
2020-03-22 01:00:00 12.2 2 Noroeste 12 Noroeste 0.2 1011.3 -0.4 93
2020-03-22 00:00:00 12.8 2 Sudoeste 13 Oeste 1 1011.5 0 93
2020-03-21 23:00:00 13.2 5 Oeste 15 Oeste 1.8 1011.7 0.5 91
2020-03-21 22:00:00 13.7 4 Sur 10 Nordeste 0 1011.7 1 88
2020-03-21 21:00:00 13.9 4 Norte 10 Nordeste 0 1011.5 0.8 87
2020-03-21 20:00:00 13.9 5 Norte 15 Nordeste 0 1011.2 0.2 86
2020-03-21 19:00:00 14.3 6 Nordeste 17 Nordeste 0 1010.7 -0.5 83
2020-03-21 18:00:00 14.3 10 Nordeste 20 Nordeste 0 1010.7 -1.1 83
2020-03-21 17:00:00 14.2 10 Norte 27 Norte 0 1011 -1.1 85
2020-03-21 16:00:00 13.8 15 Norte 26 Norte 0.6 1011.2 -1.5 87
2020-03-21 15:00:00 14.3 13 Norte 25 Nordeste 0 1011.8 -1.2 82
2020-03-21 14:00:00 13.8 13 Nordeste 21 Nordeste 0.2 1012.1 -1.1 86
2020-03-21 13:00:00 13.2 6 Norte 16 Norte 0.4 1012.7 -0.4 88
2020-03-21 12:00:00 13.4 9 Norte 17 Norte 0 1013 0.2 85
2020-03-21 11:00:00 13.8 5 Norte 19 Norte 0 1013.2 0.6 84
2020-03-21 10:00:00 13.8 12 Nordeste 21 Norte 0 1013.1 0.6 86
2020-03-21 09:00:00 14.5 9 Nordeste 15 Este 0 1012.8 0 80
2020-03-21 08:00:00 13.8 6 Norte 16 Norte 0 1012.6 -0.3 88
2020-03-21 07:00:00 13.6 13 Norte 25 Norte 0 1012.5 -0.8 86
2020-03-21 06:00:00 13.8 14 Norte 27 Norte 0 1012.8 -1.2 86
2020-03-21 05:00:00 14 13 Norte 31 Norte 0 1012.9 -1.6 85
2020-03-21 04:00:00 13.9 15 Norte 28 Noroeste 0 1013.3 -1.9 84
2020-03-21 03:00:00 14 15 Norte 27 Norte 0 1014 -1.5 82
2020-03-21 02:00:00 13.9 13 Norte 27 Norte 0 1014.5 -1.3 82
2020-03-21 01:00:00 14 14 Norte 23 Norte 0 1015.2 -0.9 83
2020-03-21 00:00:00 13.6 10 Norte 18 Norte 0 1015.5 -0.1 85
2020-03-20 23:00:00 13.8 8 Norte 19 Nordeste 0 1015.8 0.4 82
2020-03-20 22:00:00 13.9 10 Nordeste 25 Norte 0 1016.1 0.7 78
2020-03-20 21:00:00 14.1 14 Nordeste 27 Norte 0 1015.6 0.1 77
2020-03-20 20:00:00 14.1 15 Nordeste 26 Nordeste 0 1015.4 -0.2 75
2020-03-20 19:00:00 14.4 16 Norte 27 Norte 0 1015.4 -0.7 74
2020-03-20 18:00:00 14.9 17 Norte 29 Norte 0 1015.5 -1.3 75
2020-03-20 17:00:00 15.2 13 Norte 24 Norte 0 1015.6 -1.6 75
2020-03-20 16:00:00 14.9 14 Norte 24 Nordeste 0 1016.1 -1.7 79
2020-03-20 15:00:00 15.2 11 Norte 21 Nordeste 0 1016.8 -1.1 74
2020-03-20 14:00:00 15.4 12 Norte 24 Nordeste 0 1017.2 -0.8 72
2020-03-20 13:00:00 15.6 15 Nordeste 30 Nordeste 0 1017.8 0.3 70
2020-03-20 12:00:00 15.5 16 Nordeste 27 Nordeste 0 1017.9 0.5 73
2020-03-20 11:00:00 14.7 13 Nordeste 24 Nordeste 0.4 1018 1 75
2020-03-20 10:00:00 13.5 15 Nordeste 29 Nordeste 2.6 1017.5 0.7 83
2020-03-20 09:00:00 14.2 14 Nordeste 24 Nordeste 0 1017.4 0.7 73
2020-03-20 08:00:00 13.7 13 Nordeste 23 Nordeste 0 1017 0.3 75
2020-03-20 07:00:00 13.5 14 Nordeste 27 Nordeste 0 1016.8 -0.6 77
2020-03-20 06:00:00 13.4 15 Norte 27 Norte 0 1016.7 -1 78
2020-03-20 05:00:00 13 11 Norte 21 Norte 0 1016.7 -1.5 81
2020-03-20 04:00:00 13.2 7 Nordeste 17 Norte 0 1017.4 -1.1 81
2020-03-20 03:00:00 13.7 10 Nordeste 20 Nordeste 0 1017.7 -1.4 79
2020-03-20 02:00:00 13.9 13 Nordeste 23 Nordeste 0 1018.2 -1.1 79
2020-03-20 01:00:00 14 12 Nordeste 24 Norte 0 1018.5 -0.8 80
2020-03-20 00:00:00 14.2 16 Nordeste 27 Nordeste 0 1019.1 -0.2 73
2020-03-19 23:00:00 14.4 12 Nordeste 23 Nordeste 0 1019.3 0.3 80
2020-03-19 22:00:00 14.4 13 Nordeste 22 Nordeste 0 1019.3 0.3 79
2020-03-19 21:00:00 14.4 13 Nordeste 20 Nordeste 0 1019.3 0.2 82
2020-03-19 20:00:00 14.5 14 Nordeste 22 Nordeste 0 1019 -0.4 81
2020-03-19 19:00:00 15 12 Nordeste 21 Nordeste 0 1019 -1 79
2020-03-19 18:00:00 15.5 14 Nordeste 22 Norte 0 1019.1 -1.2 76
2020-03-19 17:00:00 16.7 12 Norte 29 Norte 0 1019.4 -1.6 72
2020-03-19 16:00:00 16.9 13 Nordeste 23 Nordeste 0 1020 -1.7 71
2020-03-19 15:00:00 16.7 14 Nordeste 25 Nordeste 0 1020.3 -1.7 69
2020-03-19 14:00:00 17.5 14 Nordeste 25 Nordeste 0 1021 -1.3 65
2020-03-19 13:00:00 17.7 12 Nordeste 22 Este 0 1021.7 -0.3 65
2020-03-19 12:00:00 17.5 14 Nordeste 23 Nordeste 0 1022 0.2 63
2020-03-19 11:00:00 16.7 10 Nordeste 20 Nordeste 0 1022.3 0.5 71
2020-03-19 10:00:00 16.5 11 Nordeste 21 Norte 0 1022 0.4 75
2020-03-19 09:00:00 14.8 12 Nordeste 23 Nordeste 0 1021.8 0.4 84
2020-03-19 08:00:00 14.1 10 Nordeste 26 Norte 0 1021.8 0.3 88
2020-03-19 07:00:00 14 13 Norte 24 Norte 0 1021.6 -0.3 89
2020-03-19 06:00:00 13.8 13 Norte 24 Norte 0 1021.4 -1.1 88
2020-03-19 05:00:00 13.9 13 Norte 27 Norte 0 1021.5 -1.5 88
2020-03-19 04:00:00 13.9 14 Norte 23 Norte 0 1021.9 -1.6 87
2020-03-19 03:00:00 13.9 13 Norte 22 Norte 0 1022.5 -1.6 87
2020-03-19 02:00:00 14.1 9 Norte 21 Norte 0 1023 -1.2 87
2020-03-19 01:00:00 14.2 13 Norte 21 Norte 0 1023.5 -0.6 87
2020-03-19 00:00:00 14 10 Norte 21 Norte 0 1024.1 0.1 85
2020-03-18 23:00:00 13.9 12 Norte 24 Norte 0 1024.2 0.6 84
2020-03-18 22:00:00 13.8 12 Norte 24 Norte 0 1024.1 0.6 84
2020-03-18 21:00:00 13.9 15 Norte 31 Norte 0 1024 0.7 82
2020-03-18 20:00:00 14 17 Norte 32 Nordeste 0 1023.6 0.2 81
2020-03-18 19:00:00 14.3 17 Norte 34 Norte 0 1023.5 -0.2 80
2020-03-18 18:00:00 14.8 17 Norte 35 Norte 0 1023.3 -0.8 79
2020-03-18 17:00:00 15.3 18 Norte 35 Norte 0 1023.4 -1.2 78
2020-03-18 16:00:00 16.4 18 Norte 36 Norte 0 1023.7 -1.6 72
2020-03-18 15:00:00 17 22 Norte 37 Norte 0 1024.1 -1.6 72
2020-03-18 14:00:00 16.5 21 Norte 36 Norte 0 1024.6 -1.1 73
2020-03-18 13:00:00 16.3 19 Norte 33 Norte 0 1025.3 -0.4 76
2020-03-18 12:00:00 16.6 19 Norte 35 Norte 0 1025.7 0.3 74
2020-03-18 11:00:00 16 19 Norte 33 Norte 0 1025.7 0.4 79
2020-03-18 10:00:00 14.8 17 Norte 29 Norte 0 1025.7 0.6 84
2020-03-18 09:00:00 14.4 15 Norte 32 Nordeste 0 1025.4 0.1 86
2020-03-18 08:00:00 14.1 18 Norte 32 Norte 0 1025.3 0.2 87
2020-03-18 07:00:00 14 14 Norte 30 Norte 0 1025.1 0.1 88
2020-03-18 06:00:00 14.3 17 Norte 37 Norte 0 1025.3 -0.3 90
2020-03-18 05:00:00 14.3 18 Norte 30 Norte 0 1025.1 -0.6 92
2020-03-18 04:00:00 14.4 18 Norte 31 Norte 0 1025 -0.8 91
2020-03-18 03:00:00 14.4 19 Norte 32 Norte 0 1025.6 -0.4 91
2020-03-18 02:00:00 14.4 18 Norte 40 Norte 0 1025.7 -0.4 92
2020-03-18 01:00:00 14.5 15 Norte 30 Norte 0 1025.8 0.1 91
2020-03-18 00:00:00 14.4 18 Norte 33 Norte 0 1026 1.2 91
2020-03-17 23:00:00 14.7 18 Norte 31 Norte 0 1026.1 2.1 91
2020-03-17 22:00:00 14.7 19 Norte 38 Norte 0 1025.7 2.4 91
2020-03-17 21:00:00 14.7 22 Norte 39 Norte 0 1024.8 2.1 91
2020-03-17 20:00:00 14.8 22 Norte 36 Norte 0 1024 1.6 91
2020-03-17 19:00:00 15 22 Norte 40 Norte 0 1023.3 0.8 92
2020-03-17 18:00:00 15 21 Norte 37 Norte 0 1022.7 -0.1 92
2020-03-17 17:00:00 14.7 18 Norte 33 Norte 0.2 1022.4 -0.1 94
2020-03-17 16:00:00 14.1 18 Norte 32 Noroeste 0.2 1022.5 -0.2 91
2020-03-17 15:00:00 13.6 17 Noroeste 40 Noroeste 0 1022.8 -0.2 88
2020-03-17 14:00:00 13.3 21 Noroeste 40 Noroeste 0 1022.5 -0.5 87
2020-03-17 13:00:00 13.4 25 Norte 41 Norte 0 1022.7 -0.2 81
2020-03-17 12:00:00 12.8 16 Noroeste 31 Noroeste 0.2 1023 0.7 90
2020-03-17 11:00:00 11.5 13 Oeste 29 Noroeste 4.2 1023 1.7 93
2020-03-17 10:00:00 11.5 9 Oeste 22 Oeste 1.2 1022.9 2.4 92
2020-03-17 09:00:00 11.2 5 Oeste 17 Noroeste 0.2 1022.3 2.4 94
2020-03-17 08:00:00 10.8 3 Oeste 10 Noroeste 0 1021.3 1.6 95
2020-03-17 07:00:00 10.5 8 Noroeste 15 Noroeste 0 1020.5 2 94
2020-03-17 06:00:00 10.5 5 Sudoeste 9 Oeste 0 1019.9 0.7 94
2020-03-17 05:00:00 10.4 5 Oeste 15 Noroeste 0.2 1019.7 1 94
2020-03-17 04:00:00 10.5 8 Noroeste 18 Noroeste 0.8 1018.5 -0.3 94
2020-03-17 03:00:00 10.4 0 Calma 8 Sudoeste 0.6 1019.2 0.9 93
2020-03-17 02:00:00 10.5 5 Oeste 7 Sudoeste 0.2 1018.7 1.3 93
2020-03-17 01:00:00 10.4 3 Sur 14 Nordeste 1.4 1018.8 2.2 91
2020-03-17 00:00:00 10.5 2 Nordeste 16 Oeste 2.8 1018.3 2.7 89
2020-03-16 23:00:00 10.7 4 Oeste 13 Oeste 1 1017.4 2.8 85
2020-03-16 22:00:00 10.9 8 Sudoeste 15 Oeste 0 1016.6 2.9 81
2020-03-16 21:00:00 10.7 7 Sudoeste 13 Sudoeste 0 1015.6 2.7 81
2020-03-16 20:00:00 11.2 5 Sur 26 Noroeste 0 1014.6 2.2 77
2020-03-16 19:00:00 11 14 Noroeste 28 Noroeste 0 1013.7 1.8 78
2020-03-16 18:00:00 11.3 15 Noroeste 35 Noroeste 0 1012.9 1.3 82
2020-03-16 17:00:00 11.6 12 Noroeste 37 Noroeste 0.2 1012.4 1.3 79
2020-03-16 16:00:00 12.7 18 Norte 35 Noroeste 0 1011.9 0.8 73
2020-03-16 15:00:00 13.4 20 Norte 45 Noroeste 0 1011.6 0.6 73
2020-03-16 14:00:00 18.8 13 Sur 23 Sur 0 1011.1 0.5 61
2020-03-16 13:00:00 17.4 14 Sur 23 Sur 0 1011.1 0.5 65
2020-03-16 12:00:00 18.1 12 Sudeste 22 Sudeste 0 1011 0.6 63
2020-03-16 11:00:00 18.2 9 Este 19 Este 0 1010.6 0.6 70
2020-03-16 10:00:00 15 0 Calma 7 Oeste 0 1010.6 0.8 92
2020-03-16 09:00:00 13.7 3 Sudoeste 4 Oeste 0 1010.4 0.3 94
2020-03-16 08:00:00 13.2 0 Calma 7 Sudoeste 0 1010 -0.4 93
2020-03-16 07:00:00 13.2 2 Sudoeste 10 Este 0 1009.8 -1.1 93
2020-03-16 06:00:00 12 6 Sudoeste 9 Sur 0.2 1010.1 -1.9 92
2020-03-16 05:00:00 11.9 5 Sudoeste 9 Sudoeste 0 1010.4 -2.2 90
2020-03-16 04:00:00 12.5 3 Oeste 9 Este 0 1010.9 -2.4 89
2020-03-16 03:00:00 12.2 6 Sur 9 Sur 0 1012 -1.8 88
2020-03-16 02:00:00 13.2 4 Oeste 9 Oeste 0 1012.6 -1.3 87
2020-03-16 01:00:00 12.2 6 Sudoeste 8 Sudoeste 0 1013.3 -0.8 87
2020-03-16 00:00:00 12.8 3 Oeste 6 Oeste 0 1013.8 -0.1 85
2020-03-15 23:00:00 13.2 3 Sur 12 Sur 0 1013.9 0.1 83
2020-03-15 22:00:00 13.7 6 Sur 19 Sur 0 1014.1 0.4 81
2020-03-15 21:00:00 14.1 9 Sudoeste 20 Sur 0 1013.9 0.2 79
2020-03-15 20:00:00 14.6 10 Sur 27 Sur 0 1013.8 -0.5 77
2020-03-15 19:00:00 15.8 8 Sur 26 Sur 0 1013.7 -1.1 69
2020-03-15 18:00:00 17.4 17 Sur 30 Sur 0 1013.7 -1.7 65
2020-03-15 17:00:00 19 18 Sur 31 Sur 0 1014.3 -2.2 57
2020-03-15 16:00:00 19.8 17 Sur 26 Sur 0 1014.8 -2.6 53
2020-03-15 15:00:00 20.8 12 Sur 29 Sur 0 1015.4 -2.6 53
2020-03-15 14:00:00 20.2 13 Sur 27 Sur 0 1016.5 -1.7 54
2020-03-15 13:00:00 18 11 Este 23 Este 0 1017.4 -0.8 67
2020-03-15 12:00:00 18.7 9 Este 21 Sudeste 0 1018 -0.1 65
2020-03-15 11:00:00 16.9 8 Nordeste 14 Nordeste 0 1018.2 0.4 71
2020-03-15 10:00:00 15.6 2 Sudoeste 11 Oeste 0 1018.2 0.5 79
2020-03-15 09:00:00 11.9 6 Oeste 11 Oeste 0 1018.1 0.5 94
2020-03-15 08:00:00 9 7 Sudoeste 10 Oeste 0 1017.8 0.1 94
2020-03-15 07:00:00 8.6 7 Sudoeste 10 Sudoeste 0 1017.7 -0.2 95
2020-03-15 06:00:00 8 8 Sudoeste 10 Sudoeste 0 1017.6 -0.9 94
2020-03-15 05:00:00 8.7 9 Sudoeste 11 Sudoeste 0 1017.7 -1.1 94
2020-03-15 04:00:00 8.8 5 Sudoeste 7 Sudoeste 0 1017.9 -1.2 93
2020-03-15 03:00:00 10.1 5 Oeste 9 Sudoeste 0 1018.5 -0.8 94
2020-03-15 02:00:00 10.2 6 Sudoeste 8 Sudoeste 0 1018.8 -0.5 92
2020-03-15 01:00:00 11.9 3 Sudoeste 10 Oeste 0 1019.1 -0.1 91
2020-03-15 00:00:00 12.2 5 Oeste 9 Sudoeste 0 1019.3 0.4 91
2020-03-14 23:00:00 12.8 7 Oeste 11 Oeste 0 1019.3 0.8 91
2020-03-14 22:00:00 12.5 7 Sudoeste 10 Sudoeste 0 1019.2 1.1 88
2020-03-14 21:00:00 13.7 7 Sudoeste 14 Sur 0 1018.9 0.9 82
2020-03-14 20:00:00 15 7 Sur 18 Sur 0 1018.5 0.5 78
2020-03-14 19:00:00 16.5 11 Sur 20 Sur 0 1018.1 0.1 72
2020-03-14 18:00:00 17.3 11 Sur 23 Sur 0 1018 -0.4 67
2020-03-14 17:00:00 19.6 9 Sudeste 23 Sudeste 0 1018 -1.2 61
2020-03-14 16:00:00 18.7 12 Este 26 Este 0 1018 -2 66
2020-03-14 15:00:00 19.2 13 Este 23 Este 0 1018.4 -2 63
2020-03-14 14:00:00 18.3 10 Este 19 Este 0 1019.2 -1.1 67
2020-03-14 13:00:00 18 11 Nordeste 18 Nordeste 0 1020 0.1 68
2020-03-14 12:00:00 17.5 11 Nordeste 20 Este 0 1020.4 1.2 69
2020-03-14 11:00:00 17.4 8 Este 16 Nordeste 0 1020.3 1.8 72
2020-03-14 10:00:00 16.6 6 Nordeste 11 Nordeste 0 1019.9 1.8 72
2020-03-14 09:00:00 12.6 2 Sur 9 Sudoeste 0 1019.2 1.3 93
2020-03-14 08:00:00 9.4 8 Sudoeste 11 Sudoeste 0 1018.5 1 93
2020-03-14 07:00:00 10.5 7 Oeste 10 Oeste 0 1018.1 0.3 93
2020-03-14 06:00:00 11.4 6 Oeste 13 Sudoeste 0 1017.9 -0.4 93
2020-03-14 05:00:00 11.1 7 Sudoeste 11 Sudoeste 0 1017.5 -1.1 93
2020-03-14 04:00:00 11.2 5 Sudoeste 8 Sudoeste 0 1017.8 -1 92
2020-03-14 03:00:00 11.4 0 Calma 8 Oeste 0 1018.3 -0.6 90
2020-03-14 02:00:00 11.8 5 Sudoeste 13 Noroeste 0 1018.6 -0.1 88
2020-03-14 01:00:00 13 9 Oeste 20 Norte 0 1018.8 0.5 86
2020-03-14 00:00:00 13.7 5 Norte 20 Noroeste 0 1018.9 1 84
2020-03-13 23:00:00 14.2 8 Noroeste 23 Noroeste 0 1018.7 1.2 83
2020-03-13 22:00:00 14.3 10 Noroeste 25 Noroeste 0 1018.3 1.1 84
2020-03-13 21:00:00 14.3 11 Noroeste 34 Norte 0 1017.9 0.7 83
2020-03-13 20:00:00 14.5 13 Norte 26 Norte 0 1017.5 0 83
2020-03-13 19:00:00 15.3 9 Noroeste 24 Norte 0 1017.2 -0.7 78
2020-03-13 18:00:00 16.4 12 Noroeste 32 Norte 0 1017.2 -0.8 73
2020-03-13 17:00:00 16.7 15 Noroeste 33 Norte 0 1017.5 -1 73
2020-03-13 16:00:00 17 19 Norte 31 Norte 0 1017.9 -0.8 71
2020-03-13 15:00:00 19.2 18 Norte 41 Norte 0 1018 -0.6 62
2020-03-13 14:00:00 18.2 25 Norte 50 Noroeste 0 1018.5 -0.4 66
2020-03-13 13:00:00 18.5 24 Norte 48 Norte 0 1018.7 0.5 62
2020-03-13 12:00:00 17.6 26 Norte 48 Norte 0 1018.6 0.8 67
2020-03-13 11:00:00 17 22 Noroeste 51 Noroeste 0 1018.9 2 70
2020-03-13 10:00:00 15.9 27 Noroeste 57 Norte 0 1018.2 1.8 77
2020-03-13 09:00:00 14.9 22 Norte 51 Noroeste 0 1017.8 1.7 84
2020-03-13 08:00:00 14.3 24 Noroeste 48 Noroeste 0 1016.9 0.8 81
2020-03-13 07:00:00 14.3 16 Noroeste 35 Noroeste 0 1016.4 0.5 84
2020-03-13 06:00:00 14.1 17 Oeste 36 Oeste 0 1016.1 -0.1 88
2020-03-13 05:00:00 13.6 13 Noroeste 33 Noroeste 0 1016.1 -0.1 93
2020-03-13 04:00:00 12.9 4 Sur 12 Sudoeste 0 1015.9 -0.7 94
2020-03-13 03:00:00 12.8 4 Sudoeste 17 Oeste 0 1016.2 -0.5 93
2020-03-13 02:00:00 12.9 8 Oeste 15 Oeste 0 1016.2 -0.5 93
2020-03-13 01:00:00 12.3 8 Oeste 13 Oeste 0 1016.6 0.4 91
2020-03-13 00:00:00 12.6 8 Sudoeste 11 Oeste 0 1016.7 0.7 89
2020-03-12 23:00:00 13 7 Oeste 12 Oeste 0 1016.7 0.9 73
2020-03-12 22:00:00 13.3 3 Sur 5 Nordeste 0 1016.2 0.6 65
2020-03-12 21:00:00 15.6 0 Calma 9 Sudoeste 0 1016 0.5 54
2020-03-12 20:00:00 17.9 7 Oeste 12 Oeste 0 1015.8 -0.1 46
2020-03-12 19:00:00 20.7 8 Oeste 15 Oeste 0 1015.6 -0.6 33
2020-03-12 18:00:00 23.2 8 Oeste 20 Sudoeste 0 1015.5 -1.6 27
2020-03-12 17:00:00 24.8 12 Sudoeste 22 Sudoeste 0 1015.9 -2.3 23
2020-03-12 16:00:00 25.8 9 Sudoeste 23 Sudoeste 0 1016.2 -3 22
2020-03-12 15:00:00 24.7 12 Sudoeste 24 Oeste 0 1017.1 -2.5 28
2020-03-12 14:00:00 24.6 13 Sudoeste 21 Sudoeste 0 1018.2 -1.5 27
2020-03-12 13:00:00 23.7 7 Sudeste 23 Nordeste 0 1019.2 -0.6 40
2020-03-12 12:00:00 23.1 5 Este 19 Sur 0 1019.6 0.3 40
2020-03-12 11:00:00 21.3 11 Sur 22 Sur 0 1019.7 0.4 42
2020-03-12 10:00:00 18.5 2 Sudeste 10 Sudoeste 0 1019.8 0.6 59
2020-03-12 09:00:00 13 6 Sudoeste 9 Oeste 0 1019.3 0.6 89
2020-03-12 08:00:00 9 4 Sudoeste 8 Sudoeste 0 1019.3 -0.1 93
2020-03-12 07:00:00 8.8 2 Noroeste 10 Oeste 0 1019.2 -0.8 93
2020-03-12 06:00:00 10 8 Oeste 12 Sudoeste 0 1018.7 -1.9 94
2020-03-12 05:00:00 8.9 4 Sudoeste 8 Sudoeste 0 1019.4 -1.5 92
2020-03-12 04:00:00 9.4 4 Sudoeste 10 Sudoeste 0 1020 -1.2 92
2020-03-12 03:00:00 10.6 6 Sudoeste 11 Sudoeste 0 1020.6 -0.8 92
2020-03-12 02:00:00 10.7 8 Oeste 11 Oeste 0 1020.9 -0.8 93
2020-03-12 01:00:00 10.7 3 Oeste 8 Sudoeste 0 1021.2 -0.3 90
2020-03-12 00:00:00 11.5 3 Oeste 8 Sudoeste 0 1021.4 0.5 88
2020-03-11 23:00:00 12.6 0 Calma 4 Este 0 1021.7 1.3 81
2020-03-11 22:00:00 14.2 2 Norte 18 Sur 0 1021.5 1.2 76
2020-03-11 21:00:00 16.1 6 Sudoeste 13 Sudoeste 0 1020.9 0.7 73
2020-03-11 20:00:00 17 14 Sudoeste 22 Oeste 0 1020.4 0.4 65
2020-03-11 19:00:00 19.5 13 Sudoeste 20 Sudoeste 0 1020.3 -0.2 61
2020-03-11 18:00:00 24.9 8 Sudoeste 17 Sur 0 1020.2 -0.7 33
2020-03-11 17:00:00 25.7 6 Sudeste 16 Nordeste 0 1020 -1.4 27
2020-03-11 16:00:00 23.4 10 Nordeste 17 Nordeste 0 1020.5 -1.6 30
2020-03-11 15:00:00 23.8 8 Este 18 Nordeste 0 1020.9 -1.5 29
2020-03-11 14:00:00 23.9 9 Este 16 Nordeste 0 1021.4 -0.9 29
2020-03-11 13:00:00 24.4 9 Este 13 Este 0 1022.1 -0.1 32
2020-03-11 12:00:00 24.4 5 Este 10 Nordeste 0 1022.4 0.6 32
2020-03-11 11:00:00 22.4 4 Nordeste 9 Nordeste 0 1022.3 0.7 43
2020-03-11 10:00:00 18.2 7 Oeste 15 Sudoeste 0 1022.2 0.8 56
2020-03-11 09:00:00 12.7 10 Sudoeste 14 Sudoeste 0 1021.8 0.6 71
2020-03-11 08:00:00 10.2 10 Oeste 15 Oeste 0 1021.6 0.3 83
2020-03-11 07:00:00 10 7 Oeste 17 Oeste 0 1021.4 -0.3 83
2020-03-11 06:00:00 9.1 10 Oeste 17 Oeste 0 1021.2 -1 88
2020-03-11 05:00:00 9 10 Sudoeste 14 Oeste 0 1021.3 -1 86
2020-03-11 04:00:00 10 10 Oeste 14 Oeste 0 1021.7 -0.3 83
2020-03-11 03:00:00 10.1 5 Oeste 10 Sudoeste 0 1022.2 0 82
2020-03-11 02:00:00 12.4 3 Sudoeste 15 Oeste 0 1022.3 -0.2 71
2020-03-11 01:00:00 13.6 10 Oeste 17 Oeste 0 1022 -0.4 69
2020-03-11 00:00:00 14.3 10 Sudoeste 21 Oeste 0 1022.2 -0.2 67
2020-03-10 23:00:00 14.4 10 Oeste 23 Sudoeste 0 1022.5 -0.1 65
2020-03-10 22:00:00 14.5 11 Sudoeste 32 Oeste 0 1022.4 -0.3 63
2020-03-10 21:00:00 14.7 15 Sudoeste 30 Sudoeste 0 1022.4 -0.3 62
2020-03-10 20:00:00 14.8 15 Sudoeste 36 Sudoeste 0 1022.6 -0.4 66
2020-03-10 19:00:00 15.7 13 Sudoeste 35 Sudoeste 0 1022.7 -0.6 59
2020-03-10 18:00:00 17.1 16 Sudoeste 36 Sudoeste 0 1022.7 -1 51
2020-03-10 17:00:00 17.5 16 Sudoeste 30 Sudoeste 0 1023 -1.3 52
2020-03-10 16:00:00 19.1 17 Sur 33 Sur 0 1023.3 -2 48
2020-03-10 15:00:00 19.6 15 Sudoeste 33 Sur 0 1023.7 -1.9 47
2020-03-10 14:00:00 19.8 16 Sur 31 Sur 0 1024.3 -1.4 44
2020-03-10 13:00:00 19.3 15 Sudoeste 26 Sudoeste 0 1025.3 -0.1 42
2020-03-10 12:00:00 19.5 8 Sudeste 18 Sur 0 1025.6 0.9 39
2020-03-10 11:00:00 17.2 7 Este 12 Este 0 1025.7 1.7 49
2020-03-10 10:00:00 15.5 3 Sur 8 Oeste 0 1025.4 1.9 54
2020-03-10 09:00:00 10.5 7 Sudoeste 12 Sudoeste 0 1024.7 1.7 77
2020-03-10 08:00:00 6.5 7 Oeste 13 Sudoeste 0 1024 1.4 87
2020-03-10 07:00:00 6.1 6 Sudoeste 10 Sudoeste 0 1023.5 1.3 87
2020-03-10 06:00:00 6.6 6 Sudoeste 11 Sudoeste 0 1023 0.9 83
2020-03-10 05:00:00 6.9 8 Sudoeste 12 Sudoeste 0 1022.6 0.4 82
2020-03-10 04:00:00 7.9 8 Sudoeste 13 Sudoeste 0 1022.2 -0.1 80
2020-03-10 03:00:00 8.4 10 Sudoeste 15 Oeste 0 1022.1 -0.1 80
2020-03-10 02:00:00 8.3 8 Sudoeste 12 Sudoeste 0 1022.2 0.4 82
2020-03-10 01:00:00 8.9 6 Sudoeste 9 Sudoeste 0 1022.3 1.6 79
2020-03-10 00:00:00 10.6 3 Norte 6 Noroeste 0 1022.2 2 78
2020-03-09 23:00:00 11.7 7 Sudeste 12 Oeste 0 1021.8 2.2 64
2020-03-09 22:00:00 12.2 5 Oeste 9 Oeste 0 1020.7 1.7 63
2020-03-09 21:00:00 13.8 3 Norte 15 Oeste 0 1020.2 1.1 57
2020-03-09 20:00:00 15.3 4 Sudoeste 19 Sudoeste 0 1019.6 0.7 53
2020-03-09 19:00:00 17.3 10 Sudoeste 21 Sudoeste 0 1019 -0.5 45
2020-03-09 18:00:00 20.5 3 Nordeste 19 Este 0 1019.1 -1.3 37
2020-03-09 17:00:00 21.5 9 Este 28 Noroeste 0 1018.9 -2.8 36
2020-03-09 16:00:00 22.5 13 Oeste 31 Noroeste 0 1019.5 -2.7 24
2020-03-09 15:00:00 20.9 12 Norte 21 Noroeste 0 1020.4 -1.7 31
2020-03-09 14:00:00 19.3 6 Norte 35 Norte 0 1021.7 -0.3 36
2020-03-09 13:00:00 19 16 Noroeste 29 Norte 0 1022.2 0.6 34
2020-03-09 12:00:00 18.9 10 Noroeste 29 Noroeste 0 1022.1 0.8 34
2020-03-09 11:00:00 19.1 13 Norte 30 Oeste 0 1022 1.6 33
2020-03-09 10:00:00 19.1 14 Oeste 26 Oeste 0 1021.6 1.8 33
2020-03-09 09:00:00 15 6 Oeste 14 Sudoeste 0 1021.3 1.8 48
2020-03-09 08:00:00 16.2 12 Oeste 28 Noroeste 0 1020.4 1.4 38
2020-03-09 07:00:00 15.9 15 Noroeste 25 Noroeste 0 1019.8 0.9 39
2020-03-09 06:00:00 16.6 17 Noroeste 35 Noroeste 0 1019.5 0.3 37
2020-03-09 05:00:00 17 14 Norte 23 Norte 0 1019 -0.2 35
2020-03-09 04:00:00 11.5 2 Oeste 13 Sudoeste 0 1018.9 -0.5 71
2020-03-09 03:00:00 11.9 5 Sur 18 Oeste 0 1019.2 -0.4 75
2020-03-09 02:00:00 12.2 7 Sudoeste 13 Sudoeste 0 1019.2 -0.7 77
2020-03-09 01:00:00 13.2 4 Sur 11 Sur 0 1019.4 -0.1 78
2020-03-09 00:00:00 14.1 5 Sur 11 Sur 0 1019.6 0 74
2020-03-08 23:00:00 14.9 5 Sudeste 12 Nordeste 0 1019.9 0.4 55
2020-03-08 22:00:00 14.8 8 Oeste 15 Oeste 0 1019.5 0 57
2020-03-08 21:00:00 14.7 9 Oeste 22 Sudoeste 0 1019.6 0.1 62
2020-03-08 20:00:00 15.5 14 Sudoeste 26 Sudoeste 0 1019.5 -0.3 58
2020-03-08 19:00:00 17.1 8 Oeste 20 Oeste 0 1019.5 -0.7 54
2020-03-08 18:00:00 19.4 10 Sudoeste 33 Sur 0 1019.5 -1.6 47
2020-03-08 17:00:00 20.6 13 Sudoeste 27 Sudoeste 0 1019.8 -1.9 36
2020-03-08 16:00:00 20.9 15 Sur 30 Sur 0 1020.2 -2.6 30
2020-03-08 15:00:00 21 15 Sur 26 Sudoeste 0 1021.1 -2 27
2020-03-08 14:00:00 21.9 13 Sur 27 Sudoeste 0 1021.7 -1.6 27
2020-03-08 13:00:00 20.8 14 Sudoeste 27 Sur 0 1022.8 -0.6 29
2020-03-08 12:00:00 20.1 6 Nordeste 15 Nordeste 0 1023.1 -0.1 37
2020-03-08 11:00:00 18.6 5 Nordeste 11 Este 0 1023.3 1 42
2020-03-08 10:00:00 15.8 2 Sudoeste 12 Sudoeste 0 1023.4 1.2 45
2020-03-08 09:00:00 9.8 8 Oeste 14 Sudoeste 0 1023.2 1.2 68
2020-03-08 08:00:00 5 6 Oeste 12 Sudoeste 0 1022.3 0.3 79
2020-03-08 07:00:00 6 12 Sudoeste 16 Oeste 0 1022.2 -0.3 73
2020-03-08 06:00:00 8.1 6 Sudoeste 15 Oeste 0 1022 -0.9 66
2020-03-08 05:00:00 7.4 10 Sudoeste 13 Sudoeste 0 1022 -1.1 69
2020-03-08 04:00:00 8.1 6 Oeste 12 Oeste 0 1022.5 -0.6 67
2020-03-08 03:00:00 10.2 5 Oeste 13 Sudoeste 0 1022.9 -0.5 62
2020-03-08 02:00:00 11.9 6 Sudoeste 17 Sudoeste 0 1023.1 -0.3 55
2020-03-08 01:00:00 12.6 10 Sudoeste 26 Sudoeste 0 1023.1 0.1 48
2020-03-08 00:00:00 13 11 Oeste 21 Oeste 0 1023.4 0.6 51